sensor_id;sensor_type;location;lat;lon;timestamp;temperature;humidity
3406;DHT22;10008;48.682;9.016;2023-09-12T00:02:07;18.50;99.90
3406;DHT22;10008;48.682;9.016;2023-09-12T00:04:32;18.60;99.90
3406;DHT22;10008;48.682;9.016;2023-09-12T00:06:58;18.70;99.90
3406;DHT22;10008;48.682;9.016;2023-09-12T00:09:24;18.80;99.90
3406;DHT22;10008;48.682;9.016;2023-09-12T00:11:50;18.80;99.90
3406;DHT22;10008;48.682;9.016;2023-09-12T00:14:16;18.80;99.90
3406;DHT22;10008;48.682;9.016;2023-09-12T00:16:42;18.80;99.90
3406;DHT22;10008;48.682;9.016;2023-09-12T00:19:08;18.80;99.90
3406;DHT22;10008;48.682;9.016;2023-09-12T00:21:34;18.80;99.90
3406;DHT22;10008;48.682;9.016;2023-09-12T00:23:59;18.80;99.90
3406;DHT22;10008;48.682;9.016;2023-09-12T00:26:25;18.60;99.90
3406;DHT22;10008;48.682;9.016;2023-09-12T00:28:51;18.50;99.90
3406;DHT22;10008;48.682;9.016;2023-09-12T00:31:17;18.40;99.90
3406;DHT22;10008;48.682;9.016;2023-09-12T00:33:42;18.30;99.90
3406;DHT22;10008;48.682;9.016;2023-09-12T00:36:08;18.30;99.90
3406;DHT22;10008;48.682;9.016;2023-09-12T00:38:34;18.30;99.90
3406;DHT22;10008;48.682;9.016;2023-09-12T00:41:00;18.40;99.90
3406;DHT22;10008;48.682;9.016;2023-09-12T00:43:25;18.40;99.90
3406;DHT22;10008;48.682;9.016;2023-09-12T00:45:51;18.30;99.90
3406;DHT22;10008;48.682;9.016;2023-09-12T00:48:18;18.30;99.90
3406;DHT22;10008;48.682;9.016;2023-09-12T00:50:45;18.30;99.90
3406;DHT22;10008;48.682;9.016;2023-09-12T00:53:13;18.20;99.90
3406;DHT22;10008;48.682;9.016;2023-09-12T00:55:48;18.10;99.90
3406;DHT22;10008;48.682;9.016;2023-09-12T00:58:15;18.00;99.90
3406;DHT22;10008;48.682;9.016;2023-09-12T01:00:41;18.00;99.90
3406;DHT22;10008;48.682;9.016;2023-09-12T01:03:07;18.00;99.90
3406;DHT22;10008;48.682;9.016;2023-09-12T01:05:33;17.90;99.90
3406;DHT22;10008;48.682;9.016;2023-09-12T01:08:00;18.00;99.90
3406;DHT22;10008;48.682;9.016;2023-09-12T01:10:26;18.10;99.90
3406;DHT22;10008;48.682;9.016;2023-09-12T01:12:52;18.00;99.90
3406;DHT22;10008;48.682;9.016;2023-09-12T01:15:18;18.10;99.90
3406;DHT22;10008;48.682;9.016;2023-09-12T01:17:45;18.20;99.90
3406;DHT22;10008;48.682;9.016;2023-09-12T01:20:19;18.10;99.90
3406;DHT22;10008;48.682;9.016;2023-09-12T01:28:40;18.00;99.90
3406;DHT22;10008;48.682;9.016;2023-09-12T01:31:09;17.80;99.90
3406;DHT22;10008;48.682;9.016;2023-09-12T01:33:35;17.80;99.90
3406;DHT22;10008;48.682;9.016;2023-09-12T01:36:01;17.80;99.90
3406;DHT22;10008;48.682;9.016;2023-09-12T01:38:27;17.80;99.90
3406;DHT22;10008;48.682;9.016;2023-09-12T01:40:55;17.80;99.90
3406;DHT22;10008;48.682;9.016;2023-09-12T01:43:22;17.70;99.90
3406;DHT22;10008;48.682;9.016;2023-09-12T01:45:59;17.80;99.90
3406;DHT22;10008;48.682;9.016;2023-09-12T01:48:31;17.70;99.90
3406;DHT22;10008;48.682;9.016;2023-09-12T01:51:00;17.70;99.90
3406;DHT22;10008;48.682;9.016;2023-09-12T01:53:26;17.60;99.90
3406;DHT22;10008;48.682;9.016;2023-09-12T01:55:54;17.60;99.90
3406;DHT22;10008;48.682;9.016;2023-09-12T01:58:21;17.70;99.90
3406;DHT22;10008;48.682;9.016;2023-09-12T02:00:47;17.70;99.90
3406;DHT22;10008;48.682;9.016;2023-09-12T02:03:12;17.60;99.90
3406;DHT22;10008;48.682;9.016;2023-09-12T02:05:39;17.60;99.90
3406;DHT22;10008;48.682;9.016;2023-09-12T02:08:05;17.50;99.90
3406;DHT22;10008;48.682;9.016;2023-09-12T02:10:31;17.50;99.90
3406;DHT22;10008;48.682;9.016;2023-09-12T02:12:57;17.50;99.90
3406;DHT22;10008;48.682;9.016;2023-09-12T02:15:23;17.60;99.90
3406;DHT22;10008;48.682;9.016;2023-09-12T02:17:48;17.50;99.90
3406;DHT22;10008;48.682;9.016;2023-09-12T02:20:16;17.60;99.90
3406;DHT22;10008;48.682;9.016;2023-09-12T02:22:41;17.40;99.90
3406;DHT22;10008;48.682;9.016;2023-09-12T02:25:07;17.40;99.90
3406;DHT22;10008;48.682;9.016;2023-09-12T02:27:34;17.40;99.90
3406;DHT22;10008;48.682;9.016;2023-09-12T02:29:59;17.30;99.90
3406;DHT22;10008;48.682;9.016;2023-09-12T02:32:25;17.30;99.90
3406;DHT22;10008;48.682;9.016;2023-09-12T02:34:51;17.30;99.90
3406;DHT22;10008;48.682;9.016;2023-09-12T02:37:19;17.30;99.90
3406;DHT22;10008;48.682;9.016;2023-09-12T02:39:44;17.30;99.90
3406;DHT22;10008;48.682;9.016;2023-09-12T02:42:10;17.30;99.90
3406;DHT22;10008;48.682;9.016;2023-09-12T02:44:36;17.30;99.90
3406;DHT22;10008;48.682;9.016;2023-09-12T02:47:03;17.30;99.90
3406;DHT22;10008;48.682;9.016;2023-09-12T02:49:30;17.40;99.90
3406;DHT22;10008;48.682;9.016;2023-09-12T02:51:55;17.40;99.90
3406;DHT22;10008;48.682;9.016;2023-09-12T02:54:21;17.50;99.90
3406;DHT22;10008;48.682;9.016;2023-09-12T02:56:47;17.50;99.90
3406;DHT22;10008;48.682;9.016;2023-09-12T02:59:12;17.50;99.90
3406;DHT22;10008;48.682;9.016;2023-09-12T03:01:38;17.40;99.90
3406;DHT22;10008;48.682;9.016;2023-09-12T03:04:04;17.40;99.90
3406;DHT22;10008;48.682;9.016;2023-09-12T03:06:30;17.30;99.90
3406;DHT22;10008;48.682;9.016;2023-09-12T03:08:56;17.20;99.90
3406;DHT22;10008;48.682;9.016;2023-09-12T03:11:22;17.30;99.90
3406;DHT22;10008;48.682;9.016;2023-09-12T03:13:47;17.30;99.90
3406;DHT22;10008;48.682;9.016;2023-09-12T03:16:14;17.30;99.90
3406;DHT22;10008;48.682;9.016;2023-09-12T03:18:40;17.30;99.90
3406;DHT22;10008;48.682;9.016;2023-09-12T03:21:07;17.20;99.90
3406;DHT22;10008;48.682;9.016;2023-09-12T03:23:33;17.30;99.90
3406;DHT22;10008;48.682;9.016;2023-09-12T03:26:03;17.30;99.90
3406;DHT22;10008;48.682;9.016;2023-09-12T03:28:31;17.30;99.90
3406;DHT22;10008;48.682;9.016;2023-09-12T03:31:11;17.30;99.90
3406;DHT22;10008;48.682;9.016;2023-09-12T03:33:38;17.30;99.90
3406;DHT22;10008;48.682;9.016;2023-09-12T03:36:05;17.30;99.90
3406;DHT22;10008;48.682;9.016;2023-09-12T03:38:31;17.40;99.90
3406;DHT22;10008;48.682;9.016;2023-09-12T03:40:56;17.40;99.90
3406;DHT22;10008;48.682;9.016;2023-09-12T03:43:22;17.30;99.90
3406;DHT22;10008;48.682;9.016;2023-09-12T03:45:48;17.30;99.90
3406;DHT22;10008;48.682;9.016;2023-09-12T03:48:15;17.30;99.90
3406;DHT22;10008;48.682;9.016;2023-09-12T03:50:40;17.50;99.90
3406;DHT22;10008;48.682;9.016;2023-09-12T03:53:06;17.50;99.90
3406;DHT22;10008;48.682;9.016;2023-09-12T03:55:32;17.50;99.90
3406;DHT22;10008;48.682;9.016;2023-09-12T03:57:58;17.50;99.90
3406;DHT22;10008;48.682;9.016;2023-09-12T04:00:24;17.50;99.90
3406;DHT22;10008;48.682;9.016;2023-09-12T04:02:49;17.60;99.90
3406;DHT22;10008;48.682;9.016;2023-09-12T04:05:17;17.50;99.90
3406;DHT22;10008;48.682;9.016;2023-09-12T04:07:43;17.40;99.90
3406;DHT22;10008;48.682;9.016;2023-09-12T04:10:09;17.40;99.90
3406;DHT22;10008;48.682;9.016;2023-09-12T04:12:34;17.40;99.90
3406;DHT22;10008;48.682;9.016;2023-09-12T04:15:00;17.30;99.90
3406;DHT22;10008;48.682;9.016;2023-09-12T04:17:26;17.30;99.90
3406;DHT22;10008;48.682;9.016;2023-09-12T04:19:52;17.40;99.90
3406;DHT22;10008;48.682;9.016;2023-09-12T04:22:18;17.40;99.90
3406;DHT22;10008;48.682;9.016;2023-09-12T04:24:44;17.30;99.90
3406;DHT22;10008;48.682;9.016;2023-09-12T04:27:10;17.20;99.90
3406;DHT22;10008;48.682;9.016;2023-09-12T04:29:35;17.20;99.90
3406;DHT22;10008;48.682;9.016;2023-09-12T04:32:03;17.20;99.90
3406;DHT22;10008;48.682;9.016;2023-09-12T04:34:29;17.10;99.90
3406;DHT22;10008;48.682;9.016;2023-09-12T04:36:55;17.10;99.90
3406;DHT22;10008;48.682;9.016;2023-09-12T04:39:22;17.00;99.90
3406;DHT22;10008;48.682;9.016;2023-09-12T04:41:48;17.00;99.90
3406;DHT22;10008;48.682;9.016;2023-09-12T04:44:14;17.00;99.90
3406;DHT22;10008;48.682;9.016;2023-09-12T04:46:40;17.10;99.90
3406;DHT22;10008;48.682;9.016;2023-09-12T04:49:05;17.10;99.90
3406;DHT22;10008;48.682;9.016;2023-09-12T04:51:31;17.00;99.90
3406;DHT22;10008;48.682;9.016;2023-09-12T04:53:57;17.00;99.90
3406;DHT22;10008;48.682;9.016;2023-09-12T04:56:23;17.00;99.90
3406;DHT22;10008;48.682;9.016;2023-09-12T04:58:52;16.90;99.90
3406;DHT22;10008;48.682;9.016;2023-09-12T05:01:18;16.90;99.90
3406;DHT22;10008;48.682;9.016;2023-09-12T05:03:44;17.00;99.90
3406;DHT22;10008;48.682;9.016;2023-09-12T05:06:10;17.10;99.90
3406;DHT22;10008;48.682;9.016;2023-09-12T05:08:36;17.10;99.90
3406;DHT22;10008;48.682;9.016;2023-09-12T05:11:02;17.20;99.90
3406;DHT22;10008;48.682;9.016;2023-09-12T05:13:29;17.30;99.90
3406;DHT22;10008;48.682;9.016;2023-09-12T05:15:55;17.50;99.90
3406;DHT22;10008;48.682;9.016;2023-09-12T05:18:22;17.60;99.90
3406;DHT22;10008;48.682;9.016;2023-09-12T05:20:48;17.80;99.90
3406;DHT22;10008;48.682;9.016;2023-09-12T05:23:14;18.00;99.90
3406;DHT22;10008;48.682;9.016;2023-09-12T05:25:40;18.10;99.90
3406;DHT22;10008;48.682;9.016;2023-09-12T05:28:05;18.30;99.90
3406;DHT22;10008;48.682;9.016;2023-09-12T05:30:32;18.50;99.90
3406;DHT22;10008;48.682;9.016;2023-09-12T05:32:58;18.70;99.90
3406;DHT22;10008;48.682;9.016;2023-09-12T05:35:24;19.30;99.90
3406;DHT22;10008;48.682;9.016;2023-09-12T05:37:51;20.10;99.90
3406;DHT22;10008;48.682;9.016;2023-09-12T05:40:18;20.50;99.90
3406;DHT22;10008;48.682;9.016;2023-09-12T05:42:43;20.70;99.90
3406;DHT22;10008;48.682;9.016;2023-09-12T05:45:09;20.90;99.90
3406;DHT22;10008;48.682;9.016;2023-09-12T05:47:35;21.40;99.90
3406;DHT22;10008;48.682;9.016;2023-09-12T05:50:01;22.40;99.90
3406;DHT22;10008;48.682;9.016;2023-09-12T05:52:31;23.10;99.90
3406;DHT22;10008;48.682;9.016;2023-09-12T05:54:56;23.00;99.90
3406;DHT22;10008;48.682;9.016;2023-09-12T05:57:22;22.60;99.90
3406;DHT22;10008;48.682;9.016;2023-09-12T05:59:49;22.30;99.90
3406;DHT22;10008;48.682;9.016;2023-09-12T06:02:15;22.00;99.90
3406;DHT22;10008;48.682;9.016;2023-09-12T06:04:40;21.90;99.90
3406;DHT22;10008;48.682;9.016;2023-09-12T06:07:06;21.60;99.90
3406;DHT22;10008;48.682;9.016;2023-09-12T06:09:32;21.50;99.90
3406;DHT22;10008;48.682;9.016;2023-09-12T06:11:58;21.50;99.90
3406;DHT22;10008;48.682;9.016;2023-09-12T06:14:23;21.50;99.90
3406;DHT22;10008;48.682;9.016;2023-09-12T06:16:49;21.70;99.90
3406;DHT22;10008;48.682;9.016;2023-09-12T06:19:15;21.70;99.90
3406;DHT22;10008;48.682;9.016;2023-09-12T06:21:41;21.60;99.90
3406;DHT22;10008;48.682;9.016;2023-09-12T06:24:16;21.60;99.90
3406;DHT22;10008;48.682;9.016;2023-09-12T06:26:42;22.30;99.90
3406;DHT22;10008;48.682;9.016;2023-09-12T06:29:08;22.60;99.90
3406;DHT22;10008;48.682;9.016;2023-09-12T06:31:34;22.60;99.90
3406;DHT22;10008;48.682;9.016;2023-09-12T06:34:01;22.60;99.90
3406;DHT22;10008;48.682;9.016;2023-09-12T06:36:27;22.70;99.90
3406;DHT22;10008;48.682;9.016;2023-09-12T06:38:58;22.70;99.90
3406;DHT22;10008;48.682;9.016;2023-09-12T06:41:25;22.70;99.90
3406;DHT22;10008;48.682;9.016;2023-09-12T06:43:51;22.60;99.90
3406;DHT22;10008;48.682;9.016;2023-09-12T06:46:17;22.30;99.90
3406;DHT22;10008;48.682;9.016;2023-09-12T06:48:44;22.30;99.90
3406;DHT22;10008;48.682;9.016;2023-09-12T06:51:10;22.30;99.90
3406;DHT22;10008;48.682;9.016;2023-09-12T06:53:36;22.30;99.90
3406;DHT22;10008;48.682;9.016;2023-09-12T06:56:03;22.40;99.90
3406;DHT22;10008;48.682;9.016;2023-09-12T06:58:29;22.30;99.90
3406;DHT22;10008;48.682;9.016;2023-09-12T07:00:55;22.30;99.90
3406;DHT22;10008;48.682;9.016;2023-09-12T07:03:21;22.60;99.90
3406;DHT22;10008;48.682;9.016;2023-09-12T07:05:48;22.80;99.90
3406;DHT22;10008;48.682;9.016;2023-09-12T07:08:14;23.20;99.90
3406;DHT22;10008;48.682;9.016;2023-09-12T07:10:45;24.30;99.90
3406;DHT22;10008;48.682;9.016;2023-09-12T07:13:11;25.80;99.90
3406;DHT22;10008;48.682;9.016;2023-09-12T07:15:37;27.10;99.90
3406;DHT22;10008;48.682;9.016;2023-09-12T07:18:04;28.10;99.90
3406;DHT22;10008;48.682;9.016;2023-09-12T07:20:31;29.00;97.80
3406;DHT22;10008;48.682;9.016;2023-09-12T07:22:56;29.90;95.70
3406;DHT22;10008;48.682;9.016;2023-09-12T07:25:22;30.70;93.90
3406;DHT22;10008;48.682;9.016;2023-09-12T07:27:50;31.40;92.20
3406;DHT22;10008;48.682;9.016;2023-09-12T07:30:16;31.70;90.40
3406;DHT22;10008;48.682;9.016;2023-09-12T07:32:41;32.50;90.90
3406;DHT22;10008;48.682;9.016;2023-09-12T07:35:07;33.10;87.10
3406;DHT22;10008;48.682;9.016;2023-09-12T07:37:33;32.10;86.60
3406;DHT22;10008;48.682;9.016;2023-09-12T07:39:59;31.40;88.70
3406;DHT22;10008;48.682;9.016;2023-09-12T07:42:25;30.70;90.00
3406;DHT22;10008;48.682;9.016;2023-09-12T07:44:50;30.10;91.10
3406;DHT22;10008;48.682;9.016;2023-09-12T07:47:17;29.60;91.70
3406;DHT22;10008;48.682;9.016;2023-09-12T07:49:42;28.90;92.40
3406;DHT22;10008;48.682;9.016;2023-09-12T07:52:08;28.60;93.30
3406;DHT22;10008;48.682;9.016;2023-09-12T07:54:34;28.20;93.30
3406;DHT22;10008;48.682;9.016;2023-09-12T07:57:00;28.00;94.20
3406;DHT22;10008;48.682;9.016;2023-09-12T07:59:25;27.80;93.70
3406;DHT22;10008;48.682;9.016;2023-09-12T08:01:51;27.80;94.30
3406;DHT22;10008;48.682;9.016;2023-09-12T08:04:17;28.00;93.90
3406;DHT22;10008;48.682;9.016;2023-09-12T08:06:43;28.00;95.30
3406;DHT22;10008;48.682;9.016;2023-09-12T08:09:09;27.60;95.10
3406;DHT22;10008;48.682;9.016;2023-09-12T08:11:35;27.50;96.40
3406;DHT22;10008;48.682;9.016;2023-09-12T08:14:01;27.20;95.40
3406;DHT22;10008;48.682;9.016;2023-09-12T08:16:27;27.00;97.10
3406;DHT22;10008;48.682;9.016;2023-09-12T08:18:53;27.30;97.00
3406;DHT22;10008;48.682;9.016;2023-09-12T08:21:18;27.40;95.80
3406;DHT22;10008;48.682;9.016;2023-09-12T08:23:44;27.70;96.40
3406;DHT22;10008;48.682;9.016;2023-09-12T08:26:10;29.00;96.10
3406;DHT22;10008;48.682;9.016;2023-09-12T08:28:36;30.10;94.40
3406;DHT22;10008;48.682;9.016;2023-09-12T08:31:02;31.50;90.70
3406;DHT22;10008;48.682;9.016;2023-09-12T08:33:28;32.50;90.00
3406;DHT22;10008;48.682;9.016;2023-09-12T08:35:53;33.90;85.10
3406;DHT22;10008;48.682;9.016;2023-09-12T08:38:19;34.60;83.40
3406;DHT22;10008;48.682;9.016;2023-09-12T08:40:51;35.00;78.80
3406;DHT22;10008;48.682;9.016;2023-09-12T08:43:18;35.40;75.70
3406;DHT22;10008;48.682;9.016;2023-09-12T08:45:45;35.10;74.70
3406;DHT22;10008;48.682;9.016;2023-09-12T08:48:11;35.80;76.20
3406;DHT22;10008;48.682;9.016;2023-09-12T08:50:38;35.90;74.80
3406;DHT22;10008;48.682;9.016;2023-09-12T08:53:04;36.10;71.20
3406;DHT22;10008;48.682;9.016;2023-09-12T08:55:31;35.70;71.90
3406;DHT22;10008;48.682;9.016;2023-09-12T08:58:05;35.90;74.50
3406;DHT22;10008;48.682;9.016;2023-09-12T09:00:31;36.40;72.20
3406;DHT22;10008;48.682;9.016;2023-09-12T09:02:57;36.50;69.90
3406;DHT22;10008;48.682;9.016;2023-09-12T09:05:24;36.50;72.80
3406;DHT22;10008;48.682;9.016;2023-09-12T09:07:51;36.50;71.80
3406;DHT22;10008;48.682;9.016;2023-09-12T09:10:18;36.60;70.00
3406;DHT22;10008;48.682;9.016;2023-09-12T09:12:45;37.00;71.20
3406;DHT22;10008;48.682;9.016;2023-09-12T09:17:47;36.90;67.90
3406;DHT22;10008;48.682;9.016;2023-09-12T09:20:26;37.00;68.40
3406;DHT22;10008;48.682;9.016;2023-09-12T09:23:04;37.30;68.00
3406;DHT22;10008;48.682;9.016;2023-09-12T09:25:40;37.50;65.90
3406;DHT22;10008;48.682;9.016;2023-09-12T09:28:20;38.00;67.00
3406;DHT22;10008;48.682;9.016;2023-09-12T09:30:48;38.30;61.20
3406;DHT22;10008;48.682;9.016;2023-09-12T09:33:14;38.70;62.50
3406;DHT22;10008;48.682;9.016;2023-09-12T09:35:46;38.80;60.10
3406;DHT22;10008;48.682;9.016;2023-09-12T09:38:12;38.70;60.80
3406;DHT22;10008;48.682;9.016;2023-09-12T09:40:43;38.90;58.50
3406;DHT22;10008;48.682;9.016;2023-09-12T09:43:09;39.20;59.90
3406;DHT22;10008;48.682;9.016;2023-09-12T09:45:44;39.70;58.20
3406;DHT22;10008;48.682;9.016;2023-09-12T09:48:10;39.40;55.70
3406;DHT22;10008;48.682;9.016;2023-09-12T09:50:42;39.80;56.00
3406;DHT22;10008;48.682;9.016;2023-09-12T09:53:08;39.90;57.30
3406;DHT22;10008;48.682;9.016;2023-09-12T09:55:35;40.00;56.90
3406;DHT22;10008;48.682;9.016;2023-09-12T09:58:02;40.00;56.60
3406;DHT22;10008;48.682;9.016;2023-09-12T10:00:29;40.00;56.10
3406;DHT22;10008;48.682;9.016;2023-09-12T10:02:55;39.80;56.00
3406;DHT22;10008;48.682;9.016;2023-09-12T10:05:22;39.60;54.90
3406;DHT22;10008;48.682;9.016;2023-09-12T10:07:49;39.30;55.60
3406;DHT22;10008;48.682;9.016;2023-09-12T10:10:17;39.10;55.50
3406;DHT22;10008;48.682;9.016;2023-09-12T10:12:52;39.40;59.00
3406;DHT22;10008;48.682;9.016;2023-09-12T10:15:20;40.10;57.00
3406;DHT22;10008;48.682;9.016;2023-09-12T10:17:55;40.50;53.30
3406;DHT22;10008;48.682;9.016;2023-09-12T10:20:29;40.80;54.50
3406;DHT22;10008;48.682;9.016;2023-09-12T10:23:58;41.60;53.90
3406;DHT22;10008;48.682;9.016;2023-09-12T10:26:02;41.10;52.00
3406;DHT22;10008;48.682;9.016;2023-09-12T10:28:28;40.50;51.30
3406;DHT22;10008;48.682;9.016;2023-09-12T10:30:57;40.40;54.80
3406;DHT22;10008;48.682;9.016;2023-09-12T10:33:25;40.90;52.80
3406;DHT22;10008;48.682;9.016;2023-09-12T10:35:53;41.50;52.40
3406;DHT22;10008;48.682;9.016;2023-09-12T10:38:21;41.90;51.30
3406;DHT22;10008;48.682;9.016;2023-09-12T10:40:49;41.80;51.70
3406;DHT22;10008;48.682;9.016;2023-09-12T10:43:15;41.90;50.00
3406;DHT22;10008;48.682;9.016;2023-09-12T10:45:42;41.80;49.30
3406;DHT22;10008;48.682;9.016;2023-09-12T10:48:09;41.00;45.70
3406;DHT22;10008;48.682;9.016;2023-09-12T10:50:37;41.20;46.90
3406;DHT22;10008;48.682;9.016;2023-09-12T10:53:15;41.90;48.40
3406;DHT22;10008;48.682;9.016;2023-09-12T10:55:58;41.90;44.60
3406;DHT22;10008;48.682;9.016;2023-09-12T10:58:25;42.30;46.20
3406;DHT22;10008;48.682;9.016;2023-09-12T11:01:24;42.40;43.40
3406;DHT22;10008;48.682;9.016;2023-09-12T11:03:51;42.60;44.00
3406;DHT22;10008;48.682;9.016;2023-09-12T11:06:21;42.70;47.40
3406;DHT22;10008;48.682;9.016;2023-09-12T11:11:49;42.80;44.30
3406;DHT22;10008;48.682;9.016;2023-09-12T11:14:19;42.10;46.80
3406;DHT22;10008;48.682;9.016;2023-09-12T11:19:50;42.70;44.60
3406;DHT22;10008;48.682;9.016;2023-09-12T11:22:25;43.40;43.70
3406;DHT22;10008;48.682;9.016;2023-09-12T11:24:51;42.70;46.10
3406;DHT22;10008;48.682;9.016;2023-09-12T11:27:17;42.40;43.80
3406;DHT22;10008;48.682;9.016;2023-09-12T11:29:44;42.10;44.30
3406;DHT22;10008;48.682;9.016;2023-09-12T11:32:29;42.60;45.20
3406;DHT22;10008;48.682;9.016;2023-09-12T11:34:55;43.30;42.40
3406;DHT22;10008;48.682;9.016;2023-09-12T11:37:26;43.70;43.30
3406;DHT22;10008;48.682;9.016;2023-09-12T11:39:52;43.70;40.20
3406;DHT22;10008;48.682;9.016;2023-09-12T11:42:19;43.70;42.40
3406;DHT22;10008;48.682;9.016;2023-09-12T11:44:44;43.40;43.50
3406;DHT22;10008;48.682;9.016;2023-09-12T11:47:10;42.40;40.00
3406;DHT22;10008;48.682;9.016;2023-09-12T11:49:41;42.60;43.40
3406;DHT22;10008;48.682;9.016;2023-09-12T11:52:12;42.00;39.30
3406;DHT22;10008;48.682;9.016;2023-09-12T11:54:39;41.90;39.50
3406;DHT22;10008;48.682;9.016;2023-09-12T11:57:07;41.40;39.20
3406;DHT22;10008;48.682;9.016;2023-09-12T11:59:37;40.40;40.30
3406;DHT22;10008;48.682;9.016;2023-09-12T12:02:09;40.20;40.60
3406;DHT22;10008;48.682;9.016;2023-09-12T12:04:35;40.70;40.70
3406;DHT22;10008;48.682;9.016;2023-09-12T12:07:02;41.40;40.00
3406;DHT22;10008;48.682;9.016;2023-09-12T12:09:30;42.20;39.20
3406;DHT22;10008;48.682;9.016;2023-09-12T12:11:56;42.60;42.90
3406;DHT22;10008;48.682;9.016;2023-09-12T12:14:26;42.60;41.80
3406;DHT22;10008;48.682;9.016;2023-09-12T12:16:52;42.20;37.70
3406;DHT22;10008;48.682;9.016;2023-09-12T12:19:18;41.60;41.40
3406;DHT22;10008;48.682;9.016;2023-09-12T12:21:44;42.00;40.30
3406;DHT22;10008;48.682;9.016;2023-09-12T12:24:11;41.90;39.80
3406;DHT22;10008;48.682;9.016;2023-09-12T12:26:42;41.80;42.10
3406;DHT22;10008;48.682;9.016;2023-09-12T12:29:11;41.60;42.00
3406;DHT22;10008;48.682;9.016;2023-09-12T12:31:37;40.80;44.40
3406;DHT22;10008;48.682;9.016;2023-09-12T12:34:05;40.30;42.10
3406;DHT22;10008;48.682;9.016;2023-09-12T12:36:31;40.00;44.60
3406;DHT22;10008;48.682;9.016;2023-09-12T12:38:57;39.70;44.70
3406;DHT22;10008;48.682;9.016;2023-09-12T12:41:31;39.40;44.10
3406;DHT22;10008;48.682;9.016;2023-09-12T12:43:58;39.10;45.70
3406;DHT22;10008;48.682;9.016;2023-09-12T12:46:27;38.80;48.00
3406;DHT22;10008;48.682;9.016;2023-09-12T12:48:54;39.00;48.70
3406;DHT22;10008;48.682;9.016;2023-09-12T12:51:24;38.90;47.40
3406;DHT22;10008;48.682;9.016;2023-09-12T12:53:55;38.70;46.30
3406;DHT22;10008;48.682;9.016;2023-09-12T12:56:28;38.70;46.20
3406;DHT22;10008;48.682;9.016;2023-09-12T12:58:58;38.80;46.30
3406;DHT22;10008;48.682;9.016;2023-09-12T13:01:26;38.80;45.70
3406;DHT22;10008;48.682;9.016;2023-09-12T13:03:51;38.70;46.00
3406;DHT22;10008;48.682;9.016;2023-09-12T13:06:18;38.80;46.80
3406;DHT22;10008;48.682;9.016;2023-09-12T13:08:46;38.60;46.70
3406;DHT22;10008;48.682;9.016;2023-09-12T13:11:13;38.80;47.50
3406;DHT22;10008;48.682;9.016;2023-09-12T13:13:40;38.70;48.00
3406;DHT22;10008;48.682;9.016;2023-09-12T13:16:07;39.10;43.90
3406;DHT22;10008;48.682;9.016;2023-09-12T13:18:36;39.40;46.00
3406;DHT22;10008;48.682;9.016;2023-09-12T13:21:01;38.50;48.60
3406;DHT22;10008;48.682;9.016;2023-09-12T13:23:28;37.20;51.20
3406;DHT22;10008;48.682;9.016;2023-09-12T13:25:55;35.80;53.70
3406;DHT22;10008;48.682;9.016;2023-09-12T13:28:21;34.90;55.20
3406;DHT22;10008;48.682;9.016;2023-09-12T13:30:49;34.00;56.60
3406;DHT22;10008;48.682;9.016;2023-09-12T13:33:14;33.40;57.90
3406;DHT22;10008;48.682;9.016;2023-09-12T13:35:41;33.20;58.30
3406;DHT22;10008;48.682;9.016;2023-09-12T13:38:07;33.20;60.50
3406;DHT22;10008;48.682;9.016;2023-09-12T13:40:38;33.30;59.30
3406;DHT22;10008;48.682;9.016;2023-09-12T13:43:05;33.00;61.60
3406;DHT22;10008;48.682;9.016;2023-09-12T13:45:31;33.10;61.80
3406;DHT22;10008;48.682;9.016;2023-09-12T13:47:58;33.80;59.50
3406;DHT22;10008;48.682;9.016;2023-09-12T13:50:25;34.60;59.40
3406;DHT22;10008;48.682;9.016;2023-09-12T13:52:52;34.80;57.10
3406;DHT22;10008;48.682;9.016;2023-09-12T13:55:18;35.30;57.00
3406;DHT22;10008;48.682;9.016;2023-09-12T13:57:44;35.70;56.50
3406;DHT22;10008;48.682;9.016;2023-09-12T14:00:10;35.80;56.40
3406;DHT22;10008;48.682;9.016;2023-09-12T14:02:36;36.10;55.80
3406;DHT22;10008;48.682;9.016;2023-09-12T14:05:01;36.30;55.80
3406;DHT22;10008;48.682;9.016;2023-09-12T14:07:27;36.30;54.50
3406;DHT22;10008;48.682;9.016;2023-09-12T14:09:53;36.60;56.00
3406;DHT22;10008;48.682;9.016;2023-09-12T14:12:22;36.80;54.50
3406;DHT22;10008;48.682;9.016;2023-09-12T14:14:48;37.10;54.30
3406;DHT22;10008;48.682;9.016;2023-09-12T14:17:14;36.80;53.40
3406;DHT22;10008;48.682;9.016;2023-09-12T14:19:40;35.90;55.00
3406;DHT22;10008;48.682;9.016;2023-09-12T14:22:06;35.00;56.80
3406;DHT22;10008;48.682;9.016;2023-09-12T14:24:31;34.30;58.00
3406;DHT22;10008;48.682;9.016;2023-09-12T14:26:57;33.80;59.30
3406;DHT22;10008;48.682;9.016;2023-09-12T14:29:23;33.20;59.90
3406;DHT22;10008;48.682;9.016;2023-09-12T14:31:52;32.60;60.70
3406;DHT22;10008;48.682;9.016;2023-09-12T14:34:26;32.30;62.10
3406;DHT22;10008;48.682;9.016;2023-09-12T14:36:54;31.90;63.70
3406;DHT22;10008;48.682;9.016;2023-09-12T14:39:21;31.60;65.30
3406;DHT22;10008;48.682;9.016;2023-09-12T14:41:47;31.50;64.70
3406;DHT22;10008;48.682;9.016;2023-09-12T14:44:35;31.10;64.90
3406;DHT22;10008;48.682;9.016;2023-09-12T14:47:01;31.00;66.10
3406;DHT22;10008;48.682;9.016;2023-09-12T14:49:27;30.90;67.70
3406;DHT22;10008;48.682;9.016;2023-09-12T14:51:52;30.80;67.70
3406;DHT22;10008;48.682;9.016;2023-09-12T14:54:19;30.70;68.00
3406;DHT22;10008;48.682;9.016;2023-09-12T14:56:44;30.60;68.50
3406;DHT22;10008;48.682;9.016;2023-09-12T14:59:10;30.50;68.40
3406;DHT22;10008;48.682;9.016;2023-09-12T15:01:37;30.40;69.10
3406;DHT22;10008;48.682;9.016;2023-09-12T15:04:02;30.30;69.30
3406;DHT22;10008;48.682;9.016;2023-09-12T15:06:28;30.20;68.80
3406;DHT22;10008;48.682;9.016;2023-09-12T15:08:58;30.40;69.40
3406;DHT22;10008;48.682;9.016;2023-09-12T15:11:24;30.40;69.00
3406;DHT22;10008;48.682;9.016;2023-09-12T15:13:50;30.50;68.30
3406;DHT22;10008;48.682;9.016;2023-09-12T15:16:16;30.40;68.00
3406;DHT22;10008;48.682;9.016;2023-09-12T15:18:41;30.40;69.30
3406;DHT22;10008;48.682;9.016;2023-09-12T15:21:07;30.30;69.20
3406;DHT22;10008;48.682;9.016;2023-09-12T15:23:33;30.20;69.90
3406;DHT22;10008;48.682;9.016;2023-09-12T15:25:59;30.10;71.00
3406;DHT22;10008;48.682;9.016;2023-09-12T15:28:25;30.00;69.80
3406;DHT22;10008;48.682;9.016;2023-09-12T15:30:50;29.90;72.20
3406;DHT22;10008;48.682;9.016;2023-09-12T15:33:16;29.70;72.30
3406;DHT22;10008;48.682;9.016;2023-09-12T15:35:42;29.60;72.00
3406;DHT22;10008;48.682;9.016;2023-09-12T15:38:08;29.50;72.70
3406;DHT22;10008;48.682;9.016;2023-09-12T15:40:34;29.40;72.10
3406;DHT22;10008;48.682;9.016;2023-09-12T15:42:59;29.30;73.10
3406;DHT22;10008;48.682;9.016;2023-09-12T15:45:27;29.20;73.20
3406;DHT22;10008;48.682;9.016;2023-09-12T15:47:52;29.10;73.80
3406;DHT22;10008;48.682;9.016;2023-09-12T15:50:18;29.10;73.60
3406;DHT22;10008;48.682;9.016;2023-09-12T15:52:44;29.00;74.00
3406;DHT22;10008;48.682;9.016;2023-09-12T15:55:10;28.90;74.90
3406;DHT22;10008;48.682;9.016;2023-09-12T15:57:37;28.90;75.20
3406;DHT22;10008;48.682;9.016;2023-09-12T16:00:07;29.00;77.30